Time;durP1;ratioP1;P1;durP2;ratioP2;P2;SDS_P1;SDS_P2;PMS_P1;PMS_P2;Temp;Humidity;BMP_temperature;BMP_pressure;BME280_temperature;BME280_humidity;BME280_pressure;Samples;Min_cycle;Max_cycle;Signal;HPM_P1;HPM_P2
2022/12/27 00:00:39;;;;;;;22.20;11.85;;;;;;;;;;2114725;28;20102;-44
2022/12/27 00:01:40;;;;;;;22.73;12.25;;;;;;;;;;2114621;28;20456;-44
2022/12/27 00:02:41;;;;;;;20.38;13.25;;;;;;;;;;2114769;28;20132;-44
2022/12/27 00:03:43;;;;;;;23.77;12.35;;;;;;;;;;2114779;28;20210;-44
2022/12/27 00:04:44;;;;;;;21.67;12.27;;;;;;;;;;2114685;28;20055;-44
2022/12/27 00:05:46;;;;;;;23.65;13.10;;;;;;;;;;2114668;28;20070;-44
2022/12/27 00:06:47;;;;;;;23.00;13.25;;;;;;;;;;2114763;28;20097;-44
2022/12/27 00:07:48;;;;;;;26.25;13.48;;;;;;;;;;2114524;28;20039;-44
2022/12/27 00:08:50;;;;;;;21.67;13.40;;;;;;;;;;2114851;28;20043;-44
2022/12/27 00:09:52;;;;;;;18.52;10.98;;;;;;;;;;2114601;28;20048;-43
2022/12/27 00:10:53;;;;;;;21.50;12.50;;;;;;;;;;2114625;28;20044;-44
2022/12/27 00:11:54;;;;;;;21.02;12.35;;;;;;;;;;2114640;28;20051;-44
2022/12/27 00:13:00;;;;;;;19.95;11.10;;;;;;;;;;2114791;28;20047;-43
2022/12/27 00:14:02;;;;;;;21.58;12.73;;;;;;;;;;2114469;28;20044;-44
2022/12/27 00:15:04;;;;;;;18.17;11.60;;;;;;;;;;2114743;28;20044;-43
2022/12/27 00:16:06;;;;;;;20.33;12.38;;;;;;;;;;2114608;28;20047;-44
2022/12/27 00:17:07;;;;;;;21.63;12.23;;;;;;;;;;2114471;28;20396;-43
2022/12/27 00:18:08;;;;;;;18.50;9.23;;;;;;;;;;2114495;28;20051;-44
2022/12/27 00:19:09;;;;;;;20.33;12.02;;;;;;;;;;2114590;28;20044;-43
2022/12/27 00:20:10;;;;;;;20.40;12.32;;;;;;;;;;2114481;28;20053;-43
2022/12/27 00:21:13;;;;;;;20.80;11.15;;;;;;;;;;2114600;28;20357;-43
2022/12/27 00:22:14;;;;;;;22.58;11.40;;;;;;;;;;2114683;28;20048;-42
2022/12/27 00:23:15;;;;;;;22.42;12.25;;;;;;;;;;2114394;28;20051;-43
2022/12/27 00:24:16;;;;;;;21.95;11.73;;;;;;;;;;2114701;28;20059;-43
2022/12/27 00:25:17;;;;;;;19.27;12.15;;;;;;;;;;2114729;28;20062;-41
2022/12/27 00:26:19;;;;;;;22.20;10.70;;;;;;;;;;2114674;28;20055;-42
2022/12/27 00:27:20;;;;;;;22.73;12.95;;;;;;;;;;2114449;28;20059;-42
2022/12/27 00:28:21;;;;;;;20.15;12.02;;;;;;;;;;2114638;28;20048;-42
2022/12/27 00:29:22;;;;;;;21.73;11.73;;;;;;;;;;2114572;28;20480;-42
2022/12/27 00:30:23;;;;;;;21.85;12.00;;;;;;;;;;2114897;28;20055;-42
2022/12/27 00:31:25;;;;;;;19.27;10.70;;;;;;;;;;2114643;28;20513;-42
2022/12/27 00:32:26;;;;;;;20.70;11.93;;;;;;;;;;2114565;28;20144;-42
2022/12/27 00:33:28;;;;;;;20.90;12.67;;;;;;;;;;2114550;28;20472;-42
2022/12/27 00:34:28;;;;;;;23.23;12.52;;;;;;;;;;2106030;28;20401;-42
2022/12/27 00:35:30;;;;;;;22.05;12.63;;;;;;;;;;2106111;28;20139;-42
2022/12/27 00:36:31;;;;;;;23.50;10.95;;;;;;;;;;2106092;28;20048;-42
2022/12/27 00:37:32;;;;;;;21.75;11.98;;;;;;;;;;2106063;28;20055;-42
2022/12/27 00:38:33;;;;;;;18.42;11.88;;;;;;;;;;2105955;28;20051;-42
2022/12/27 00:39:35;;;;;;;23.13;13.05;;;;;;;;;;2106009;28;20076;-42
2022/12/27 00:40:37;;;;;;;22.38;12.38;;;;;;;;;;2106112;28;20044;-42
2022/12/27 00:41:39;;;;;;;21.77;13.05;;;;;;;;;;2105887;28;20126;-42
2022/12/27 00:42:40;;;;;;;22.17;13.18;;;;;;;;;;2106125;28;20079;-42
2022/12/27 00:43:41;;;;;;;22.55;12.15;;;;;;;;;;2105923;28;20413;-42
2022/12/27 00:44:42;;;;;;;20.10;12.45;;;;;;;;;;2105951;28;20485;-43
2022/12/27 00:45:43;;;;;;;23.00;11.50;;;;;;;;;;2105977;28;20058;-43
2022/12/27 00:46:44;;;;;;;19.95;12.75;;;;;;;;;;2105983;28;20054;-43
2022/12/27 00:47:45;;;;;;;19.67;12.18;;;;;;;;;;2105837;28;20054;-43
2022/12/27 00:48:46;;;;;;;23.98;13.68;;;;;;;;;;2108800;28;20047;-43
2022/12/27 00:49:47;;;;;;;21.53;10.07;;;;;;;;;;2113756;28;20044;-43
2022/12/27 00:50:48;;;;;;;19.30;12.45;;;;;;;;;;2114510;28;20244;-43
2022/12/27 00:51:50;;;;;;;24.37;15.37;;;;;;;;;;2114449;28;20503;-43
2022/12/27 00:52:51;;;;;;;36.25;18.05;;;;;;;;;;2114482;28;20329;-43
2022/12/27 00:53:53;;;;;;;30.52;17.05;;;;;;;;;;2114155;28;20552;-43
2022/12/27 00:54:54;;;;;;;30.90;17.30;;;;;;;;;;2114301;28;20047;-43
2022/12/27 00:55:55;;;;;;;23.17;12.73;;;;;;;;;;2114506;28;20058;-43
2022/12/27 00:56:56;;;;;;;24.50;14.30;;;;;;;;;;2114331;28;20047;-43
2022/12/27 00:57:57;;;;;;;28.42;15.82;;;;;;;;;;2114252;28;20060;-43
2022/12/27 00:59:02;;;;;;;27.15;15.25;;;;;;;;;;2114147;28;20090;-43
2022/12/27 01:00:04;;;;;;;25.05;13.75;;;;;;;;;;2114396;28;20044;-43
2022/12/27 01:01:11;;;;;;;23.80;14.15;;;;;;;;;;2114289;28;20073;-43
2022/12/27 01:02:12;;;;;;;;;;;;;;;;;;2115073;28;20048;-44
2022/12/27 01:03:14;;;;;;;20.95;12.55;;;;;;;;;;2114488;28;19927;-45
2022/12/27 01:04:16;;;;;;;23.60;14.27;;;;;;;;;;2114241;28;20048;-45
2022/12/27 01:05:18;;;;;;;27.10;15.13;;;;;;;;;;2114151;28;20054;-44
2022/12/27 01:06:20;;;;;;;22.53;13.20;;;;;;;;;;2114203;28;20059;-45
2022/12/27 01:07:22;;;;;;;24.30;13.82;;;;;;;;;;2114439;28;20051;-43
2022/12/27 01:08:23;;;;;;;26.08;14.20;;;;;;;;;;2114183;28;20047;-43
2022/12/27 01:09:24;;;;;;;21.33;13.00;;;;;;;;;;2114179;28;20051;-43
2022/12/27 01:10:25;;;;;;;26.77;15.25;;;;;;;;;;2114294;28;20051;-43
2022/12/27 01:11:27;;;;;;;23.73;12.63;;;;;;;;;;2114268;28;20044;-43
2022/12/27 01:12:28;;;;;;;24.20;14.57;;;;;;;;;;2114147;28;20484;-43
2022/12/27 01:13:29;;;;;;;27.47;15.00;;;;;;;;;;2114519;28;20071;-43
2022/12/27 01:14:30;;;;;;;22.42;13.48;;;;;;;;;;2114201;28;20403;-43
2022/12/27 01:15:31;;;;;;;25.63;14.00;;;;;;;;;;2114244;28;20047;-43
2022/12/27 01:16:32;;;;;;;25.27;14.63;;;;;;;;;;2114323;28;20058;-43
2022/12/27 01:17:33;;;;;;;22.38;13.77;;;;;;;;;;2114198;28;20062;-43
2022/12/27 01:18:34;;;;;;;25.42;14.77;;;;;;;;;;2114228;28;20164;-43
2022/12/27 01:19:36;;;;;;;27.08;16.98;;;;;;;;;;2114192;28;20580;-43
2022/12/27 01:20:37;;;;;;;25.75;15.95;;;;;;;;;;2114177;28;20381;-43
2022/12/27 01:21:38;;;;;;;26.60;16.17;;;;;;;;;;2114189;28;20059;-43
2022/12/27 01:22:40;;;;;;;25.08;14.10;;;;;;;;;;2114282;28;20055;-43
2022/12/27 01:23:41;;;;;;;27.10;16.05;;;;;;;;;;2114218;28;20047;-43
2022/12/27 01:24:42;;;;;;;28.55;16.33;;;;;;;;;;2114276;28;20040;-43
2022/12/27 01:25:43;;;;;;;26.15;14.82;;;;;;;;;;2114099;28;20047;-43
2022/12/27 01:26:44;;;;;;;27.10;15.70;;;;;;;;;;2114341;28;20487;-46
2022/12/27 01:27:45;;;;;;;27.23;16.00;;;;;;;;;;2114159;28;20127;-45
2022/12/27 01:28:46;;;;;;;28.33;15.13;;;;;;;;;;2114098;28;20043;-45
2022/12/27 01:29:48;;;;;;;26.35;16.20;;;;;;;;;;2114127;28;20554;-46
2022/12/27 01:30:48;;;;;;;28.05;15.18;;;;;;;;;;2114214;28;20096;-45
2022/12/27 01:31:50;;;;;;;29.48;16.70;;;;;;;;;;2114235;28;20128;-45
2022/12/27 01:32:51;;;;;;;25.23;15.18;;;;;;;;;;2114190;28;20044;-46
2022/12/27 01:33:53;;;;;;;28.38;17.33;;;;;;;;;;2110502;28;20377;-45
2022/12/27 01:34:54;;;;;;;26.05;15.55;;;;;;;;;;2105642;28;20404;-44
2022/12/27 01:35:55;;;;;;;30.27;16.37;;;;;;;;;;2105773;28;20040;-47
2022/12/27 01:36:56;;;;;;;29.27;16.98;;;;;;;;;;2105700;28;20477;-46
2022/12/27 01:37:58;;;;;;;28.33;15.97;;;;;;;;;;2105783;28;20051;-46
2022/12/27 01:38:59;;;;;;;30.17;17.85;;;;;;;;;;2105677;28;20048;-46
2022/12/27 01:40:00;;;;;;;28.23;16.13;;;;;;;;;;2105592;28;20043;-47
2022/12/27 01:42:50;;;;;;;31.08;17.92;;;;;;;;;;2105742;28;20040;-46
2022/12/27 01:43:41;;;;;;;27.45;15.32;;;;;;;;;;2105806;28;20191;-47
2022/12/27 01:44:54;;;;;;;28.07;17.77;;;;;;;;;;2105601;28;20054;-47
2022/12/27 01:45:55;;;;;;;26.23;14.70;;;;;;;;;;2105658;28;20044;-48
2022/12/27 01:46:56;;;;;;;30.53;16.50;;;;;;;;;;2105511;28;20036;-47
2022/12/27 01:48:00;;;;;;;24.70;14.25;;;;;;;;;;2105664;28;20054;-47
2022/12/27 01:49:01;;;;;;;28.88;15.77;;;;;;;;;;2105360;28;20048;-47
2022/12/27 01:50:08;;;;;;;27.15;15.57;;;;;;;;;;2105592;28;20044;-47
2022/12/27 01:51:10;;;;;;;27.00;15.98;;;;;;;;;;2105612;28;20047;-49
2022/12/27 01:52:12;;;;;;;29.15;16.58;;;;;;;;;;2105612;28;20056;-47
2022/12/27 01:53:16;;;;;;;26.60;15.88;;;;;;;;;;2105448;28;20055;-48
2022/12/27 01:54:17;;;;;;;30.67;16.05;;;;;;;;;;2105672;28;20048;-49
2022/12/27 01:55:21;;;;;;;31.35;17.23;;;;;;;;;;2105621;28;20044;-48
2022/12/27 01:56:24;;;;;;;29.80;16.55;;;;;;;;;;2105889;28;20047;-45
2022/12/27 01:57:25;;;;;;;28.70;16.42;;;;;;;;;;2105379;28;20481;-45
2022/12/27 01:58:28;;;;;;;26.53;14.57;;;;;;;;;;2105651;28;20050;-47
2022/12/27 01:59:29;;;;;;;29.48;17.38;;;;;;;;;;2105590;28;20094;-45
2022/12/27 02:00:30;;;;;;;27.33;15.47;;;;;;;;;;2105496;28;20497;-45
2022/12/27 02:01:33;;;;;;;26.88;16.73;;;;;;;;;;2106647;28;20409;-45
2022/12/27 02:02:34;;;;;;;27.17;16.33;;;;;;;;;;2107047;28;20046;-45
2022/12/27 02:03:39;;;;;;;32.90;19.20;;;;;;;;;;2107070;28;20052;-45
2022/12/27 02:04:40;;;;;;;28.15;17.25;;;;;;;;;;2106996;28;20048;-47
2022/12/27 02:05:41;;;;;;;24.17;15.50;;;;;;;;;;2107096;28;20059;-45
2022/12/27 02:06:42;;;;;;;27.73;15.85;;;;;;;;;;2107464;28;20048;-45
2022/12/27 02:07:48;;;;;;;27.33;16.73;;;;;;;;;;2107210;28;20359;-47
2022/12/27 02:08:52;;;;;;;24.98;13.63;;;;;;;;;;2106998;28;20105;-48
2022/12/27 02:09:56;;;;;;;28.17;16.45;;;;;;;;;;2107041;28;20053;-50
2022/12/27 02:10:57;;;;;;;30.02;16.63;;;;;;;;;;2107039;28;20056;-48
2022/12/27 02:12:00;;;;;;;28.65;16.40;;;;;;;;;;2106909;28;20055;-47
2022/12/27 02:13:03;;;;;;;24.70;13.45;;;;;;;;;;2107007;28;20044;-48
2022/12/27 02:14:05;;;;;;;29.05;17.30;;;;;;;;;;2107040;28;20044;-49
2022/12/27 02:15:06;;;;;;;31.02;16.45;;;;;;;;;;2107086;28;20052;-47
2022/12/27 02:16:11;;;;;;;27.02;16.60;;;;;;;;;;2106820;28;20036;-50
2022/12/27 02:17:14;;;;;;;27.85;16.33;;;;;;;;;;2106887;28;20058;-47
2022/12/27 02:18:15;;;;;;;30.55;16.90;;;;;;;;;;2106785;28;20417;-48
2022/12/27 02:19:20;;;;;;;26.73;16.50;;;;;;;;;;2106982;28;20509;-46
2022/12/27 02:20:23;;;;;;;27.95;16.02;;;;;;;;;;2106891;28;20056;-46
2022/12/27 02:21:48;;;;;;;27.30;16.15;;;;;;;;;;2106974;28;20055;-47
2022/12/27 02:25:06;;;;;;;29.33;15.85;;;;;;;;;;2106895;28;20710;-48
2022/12/27 02:26:35;;;;;;;30.73;17.83;;;;;;;;;;2072775;28;20428;-46
2022/12/27 02:27:48;;;;;;;26.30;14.48;;;;;;;;;;2106772;28;20063;-47
2022/12/27 02:28:57;;;;;;;28.02;16.73;;;;;;;;;;2106930;28;20325;-46
2022/12/27 02:30:01;;;;;;;27.95;16.13;;;;;;;;;;2106943;28;20097;-47
2022/12/27 02:31:03;;;;;;;29.98;18.83;;;;;;;;;;2106919;28;20051;-46
2022/12/27 02:32:07;;;;;;;29.33;17.92;;;;;;;;;;2106808;28;20551;-46
2022/12/27 02:33:12;;;;;;;32.55;18.48;;;;;;;;;;2106870;28;20052;-47
2022/12/27 02:34:16;;;;;;;31.50;17.83;;;;;;;;;;2106627;28;20101;-47
2022/12/27 02:35:20;;;;;;;33.75;17.42;;;;;;;;;;2106876;28;20044;-47
2022/12/27 02:36:25;;;;;;;29.77;17.92;;;;;;;;;;2106808;28;20044;-47
2022/12/27 02:37:28;;;;;;;29.33;16.00;;;;;;;;;;2106896;28;20055;-48
2022/12/27 02:38:31;;;;;;;30.00;17.02;;;;;;;;;;2106677;28;20401;-46
2022/12/27 02:39:33;;;;;;;30.50;18.55;;;;;;;;;;2106866;28;20142;-46
2022/12/27 02:53:06;;;;;;;28.92;15.85;;;;;;;;;;2115142;28;20050;-46
2022/12/27 02:54:16;;;;;;;33.45;18.08;;;;;;;;;;2115101;28;20051;-48
2022/12/27 02:55:27;;;;;;;28.73;16.88;;;;;;;;;;2115182;28;20051;-46
2022/12/27 02:57:57;;;;;;;28.67;14.48;;;;;;;;;;2115082;28;20043;-48
2022/12/27 02:59:06;;;;;;;31.48;18.17;;;;;;;;;;2114914;28;20040;-47
2022/12/27 03:03:22;;;;;;;30.63;17.23;;;;;;;;;;2115100;28;20043;-47
2022/12/27 03:04:30;;;;;;;32.08;16.83;;;;;;;;;;2115351;28;20416;-47
2022/12/27 03:05:36;;;;;;;30.52;17.95;;;;;;;;;;2115054;28;20048;-47
2022/12/27 03:06:46;;;;;;;33.88;18.67;;;;;;;;;;2115077;28;20050;-46
2022/12/27 03:07:50;;;;;;;32.25;18.27;;;;;;;;;;2114951;28;20043;-46
2022/12/27 03:08:55;;;;;;;30.23;14.77;;;;;;;;;;2115175;28;20438;-46
2022/12/27 03:15:55;;;;;;;34.53;19.10;;;;;;;;;;2115092;28;20048;-44
2022/12/27 03:16:59;;;;;;;34.33;20.02;;;;;;;;;;2114938;28;20629;-45
2022/12/27 03:18:04;;;;;;;34.42;18.70;;;;;;;;;;2114963;28;20369;-45
2022/12/27 03:19:08;;;;;;;35.78;19.52;;;;;;;;;;2114971;28;20040;-45
2022/12/27 03:25:33;;;;;;;36.13;18.92;;;;;;;;;;2114893;28;20046;-45
2022/12/27 03:26:36;;;;;;;37.67;21.10;;;;;;;;;;2114961;28;20070;-44
2022/12/27 03:27:37;;;;;;;36.60;21.23;;;;;;;;;;2114851;28;20039;-44
2022/12/27 03:34:30;;;;;;;36.83;20.58;;;;;;;;;;2109632;28;20044;-45
2022/12/27 03:35:28;;;;;;;36.47;20.98;;;;;;;;;;2106235;28;20086;-45
2022/12/27 03:38:03;;;;;;;38.17;22.63;;;;;;;;;;2111411;28;20043;-44
2022/12/27 03:39:06;;;;;;;36.40;19.23;;;;;;;;;;2114859;28;20051;-44
2022/12/27 03:40:10;;;;;;;37.90;21.33;;;;;;;;;;2114802;28;20373;-44
2022/12/27 03:43:55;;;;;;;33.83;19.50;;;;;;;;;;2114643;28;20047;-44
2022/12/27 03:44:56;;;;;;;38.50;21.17;;;;;;;;;;2114931;28;20051;-45
2022/12/27 03:47:23;;;;;;;39.53;20.60;;;;;;;;;;2114652;28;20052;-45
2022/12/27 03:48:25;;;;;;;39.00;22.77;;;;;;;;;;2115128;28;20047;-45
2022/12/27 03:49:30;;;;;;;34.25;21.30;;;;;;;;;;2114935;28;20422;-46
2022/12/27 03:50:35;;;;;;;36.50;21.33;;;;;;;;;;2114642;28;20055;-45
2022/12/27 03:51:37;;;;;;;37.30;22.08;;;;;;;;;;2114922;28;20047;-45
2022/12/27 03:52:40;;;;;;;41.75;22.75;;;;;;;;;;2114756;28;20047;-45
2022/12/27 03:53:42;;;;;;;34.70;21.13;;;;;;;;;;2114691;28;20052;-45
2022/12/27 03:54:43;;;;;;;;;;;;;;;;;;2115205;28;20446;-45
2022/12/27 03:55:44;;;;;;;39.15;19.02;;;;;;;;;;2114712;28;19954;-46
2022/12/27 03:56:45;;;;;;;35.42;18.58;;;;;;;;;;2114781;28;20100;-45
2022/12/27 03:57:46;;;;;;;37.17;20.90;;;;;;;;;;2114798;28;20104;-45
2022/12/27 03:58:47;;;;;;;40.00;21.92;;;;;;;;;;2114671;28;20508;-45
2022/12/27 03:59:49;;;;;;;38.05;20.42;;;;;;;;;;2114579;28;20039;-44
2022/12/27 04:00:50;;;;;;;38.25;21.92;;;;;;;;;;2114811;28;20175;-45
2022/12/27 04:01:51;;;;;;;34.67;19.40;;;;;;;;;;2114672;28;20427;-44
2022/12/27 04:02:52;;;;;;;37.80;21.48;;;;;;;;;;2114515;28;20051;-44
2022/12/27 04:03:54;;;;;;;37.88;21.13;;;;;;;;;;2114554;28;20044;-44
2022/12/27 04:04:55;;;;;;;38.67;20.92;;;;;;;;;;2114839;28;20043;-44
2022/12/27 04:05:56;;;;;;;33.53;18.83;;;;;;;;;;2115030;28;20472;-47
2022/12/27 04:06:57;;;;;;;38.00;22.15;;;;;;;;;;2114797;28;20044;-47
2022/12/27 04:34:42;;;;;;;41.83;21.92;;;;;;;;;;2114492;28;20044;-47
2022/12/27 04:35:43;;;;;;;39.67;21.80;;;;;;;;;;2114410;28;20043;-47
2022/12/27 04:36:44;;;;;;;38.63;21.40;;;;;;;;;;2114458;28;20079;-47
2022/12/27 04:37:45;;;;;;;43.03;22.08;;;;;;;;;;2114417;28;20043;-47
2022/12/27 04:38:46;;;;;;;41.60;21.75;;;;;;;;;;2114435;28;20090;-47
2022/12/27 04:54:55;;;;;;;43.42;20.83;;;;;;;;;;2114409;28;20458;-47
2022/12/27 04:56:01;;;;;;;46.15;24.92;;;;;;;;;;2088237;28;20041;-47
2022/12/27 04:57:02;;;;;;;51.78;24.92;;;;;;;;;;2088309;28;20048;-47
2022/12/27 04:58:04;;;;;;;48.40;24.95;;;;;;;;;;2088626;28;20045;-47
2022/12/27 05:02:04;;;;;;;48.45;24.92;;;;;;;;;;2111326;28;20047;-48
2022/12/27 05:03:08;;;;;;;50.05;26.63;;;;;;;;;;2114373;28;20073;-47
2022/12/27 05:04:09;;;;;;;54.00;26.45;;;;;;;;;;2114139;28;20058;-47
2022/12/27 05:05:11;;;;;;;50.37;26.93;;;;;;;;;;2114554;28;20134;-47
2022/12/27 05:06:12;;;;;;;50.25;26.48;;;;;;;;;;2114288;28;20055;-48
2022/12/27 05:13:59;;;;;;;56.33;28.20;;;;;;;;;;2114201;28;20048;-48
2022/12/27 05:15:00;;;;;;;59.88;28.25;;;;;;;;;;2114276;28;20043;-48
2022/12/27 05:16:01;;;;;;;56.30;29.07;;;;;;;;;;2114221;28;20092;-48
2022/12/27 05:17:02;;;;;;;58.75;29.80;;;;;;;;;;2114222;28;20054;-47
2022/12/27 05:18:03;;;;;;;68.53;30.67;;;;;;;;;;2114144;28;20050;-49
2022/12/27 05:19:05;;;;;;;64.97;30.03;;;;;;;;;;2114593;28;20130;-48
2022/12/27 05:20:07;;;;;;;64.07;30.90;;;;;;;;;;2114240;28;20051;-47
2022/12/27 05:21:08;;;;;;;72.03;33.80;;;;;;;;;;2114366;28;20055;-48
2022/12/27 05:26:09;;;;;;;70.70;33.25;;;;;;;;;;2114160;28;20079;-47
2022/12/27 05:27:09;;;;;;;87.68;36.78;;;;;;;;;;2114088;28;20565;-48
2022/12/27 05:28:11;;;;;;;78.18;34.55;;;;;;;;;;2114072;28;20094;-48
2022/12/27 05:29:12;;;;;;;77.65;34.15;;;;;;;;;;2114132;28;20047;-48
2022/12/27 05:30:13;;;;;;;72.77;33.97;;;;;;;;;;2114029;28;20048;-48
2022/12/27 05:31:14;;;;;;;80.63;36.72;;;;;;;;;;2114351;28;20054;-46
2022/12/27 05:32:15;;;;;;;79.38;36.88;;;;;;;;;;2114553;28;20066;-46
2022/12/27 05:33:16;;;;;;;82.82;36.13;;;;;;;;;;2114335;28;20106;-48
2022/12/27 05:34:17;;;;;;;79.88;34.58;;;;;;;;;;2106805;28;20050;-48
2022/12/27 05:35:18;;;;;;;77.15;35.00;;;;;;;;;;2106007;28;20070;-48
2022/12/27 05:36:19;;;;;;;86.32;38.33;;;;;;;;;;2105353;28;20489;-48
2022/12/27 05:37:21;;;;;;;84.68;37.75;;;;;;;;;;2105676;28;20048;-47
2022/12/27 05:38:22;;;;;;;88.70;37.75;;;;;;;;;;2105651;28;20051;-48
2022/12/27 05:39:23;;;;;;;90.32;39.17;;;;;;;;;;2105806;28;20048;-48
2022/12/27 05:40:25;;;;;;;86.70;37.17;;;;;;;;;;2105675;28;20060;-47
2022/12/27 05:41:26;;;;;;;91.15;38.65;;;;;;;;;;2105830;28;20047;-48
2022/12/27 05:42:27;;;;;;;78.95;36.47;;;;;;;;;;2105627;28;20153;-48
2022/12/27 05:43:28;;;;;;;76.05;35.30;;;;;;;;;;2105551;28;20040;-48
2022/12/27 05:44:29;;;;;;;85.43;39.72;;;;;;;;;;2105670;28;20452;-48
2022/12/27 05:45:31;;;;;;;94.10;41.75;;;;;;;;;;2105563;28;20044;-48
2022/12/27 05:46:32;;;;;;;85.10;38.53;;;;;;;;;;2105803;28;20056;-46
2022/12/27 05:47:33;;;;;;;85.97;37.37;;;;;;;;;;2105537;28;20075;-47
2022/12/27 05:48:35;;;;;;;78.82;35.95;;;;;;;;;;2105692;28;20044;-47
2022/12/27 05:49:36;;;;;;;83.10;36.35;;;;;;;;;;2105535;28;20059;-46
2022/12/27 05:50:37;;;;;;;97.65;42.65;;;;;;;;;;2105699;28;20055;-46
2022/12/27 05:51:38;;;;;;;90.40;41.97;;;;;;;;;;2105550;28;20121;-47
2022/12/27 05:52:39;;;;;;;101.32;42.38;;;;;;;;;;2105555;28;20485;-47
2022/12/27 05:53:42;;;;;;;91.97;41.50;;;;;;;;;;2105579;28;20055;-46
2022/12/27 05:54:43;;;;;;;83.18;36.85;;;;;;;;;;2105972;28;20048;-47
2022/12/27 05:55:44;;;;;;;92.40;37.88;;;;;;;;;;2105906;28;20048;-47
2022/12/27 05:56:45;;;;;;;97.38;41.40;;;;;;;;;;2105746;28;20044;-46
2022/12/27 05:57:46;;;;;;;95.63;38.47;;;;;;;;;;2105795;28;20079;-46
2022/12/27 05:58:47;;;;;;;88.05;38.63;;;;;;;;;;2105557;28;20393;-47
2022/12/27 05:59:48;;;;;;;87.25;38.60;;;;;;;;;;2105881;28;20063;-49
2022/12/27 06:00:49;;;;;;;91.07;40.03;;;;;;;;;;2105655;28;20047;-47
2022/12/27 06:01:51;;;;;;;99.03;38.72;;;;;;;;;;2105775;28;20048;-49
2022/12/27 06:02:52;;;;;;;90.07;38.15;;;;;;;;;;2105708;28;20055;-49
2022/12/27 06:03:53;;;;;;;90.87;39.43;;;;;;;;;;2105627;28;20052;-48
2022/12/27 06:04:54;;;;;;;87.85;38.22;;;;;;;;;;2105579;28;20284;-50
2022/12/27 06:05:59;;;;;;;97.50;39.73;;;;;;;;;;2105472;28;20085;-49
2022/12/27 06:07:00;;;;;;;98.28;40.58;;;;;;;;;;2105565;28;20444;-49
2022/12/27 06:08:01;;;;;;;93.70;39.07;;;;;;;;;;2105400;28;20040;-49
2022/12/27 06:09:02;;;;;;;99.95;41.97;;;;;;;;;;2105588;28;20042;-49
2022/12/27 06:10:04;;;;;;;80.80;29.67;;;;;;;;;;2105647;28;20040;-48
2022/12/27 06:11:06;;;;;;;91.00;38.70;;;;;;;;;;2105574;28;20047;-48
2022/12/27 06:12:07;;;;;;;;;;;;;;;;;;2105900;28;20405;-49
2022/12/27 06:13:08;;;;;;;92.78;36.63;;;;;;;;;;2105441;28;19923;-49
2022/12/27 06:14:09;;;;;;;97.07;40.22;;;;;;;;;;2105878;28;20058;-49
2022/12/27 06:15:11;;;;;;;113.68;41.35;;;;;;;;;;2105797;28;20048;-46
2022/12/27 06:16:12;;;;;;;102.97;40.07;;;;;;;;;;2105458;28;20393;-46
2022/12/27 06:17:13;;;;;;;110.40;42.30;;;;;;;;;;2105687;28;20051;-47
2022/12/27 06:18:14;;;;;;;108.70;41.47;;;;;;;;;;2105378;28;20511;-47
2022/12/27 06:19:15;;;;;;;109.28;42.38;;;;;;;;;;2105514;28;20051;-47
2022/12/27 06:20:17;;;;;;;102.17;40.40;;;;;;;;;;2105517;28;20044;-47
2022/12/27 06:21:19;;;;;;;116.65;42.22;;;;;;;;;;2105848;28;20379;-47
2022/12/27 06:22:20;;;;;;;103.75;42.63;;;;;;;;;;2105473;28;20497;-46
2022/12/27 06:23:21;;;;;;;119.63;43.55;;;;;;;;;;2105395;28;20048;-47
2022/12/27 06:24:23;;;;;;;111.40;42.28;;;;;;;;;;2105465;28;20489;-46
2022/12/27 06:25:23;;;;;;;105.18;41.03;;;;;;;;;;2105488;28;20052;-46
2022/12/27 06:26:26;;;;;;;111.50;43.20;;;;;;;;;;2109116;28;20040;-47
2022/12/27 06:27:27;;;;;;;114.90;43.30;;;;;;;;;;2113865;28;20203;-48
2022/12/27 06:28:28;;;;;;;112.03;41.80;;;;;;;;;;2113727;28;20508;-48
2022/12/27 06:29:29;;;;;;;120.80;44.47;;;;;;;;;;2113875;28;20051;-48
2022/12/27 06:30:30;;;;;;;126.53;43.70;;;;;;;;;;2113794;28;20058;-48
2022/12/27 06:31:37;;;;;;;111.97;43.58;;;;;;;;;;2114059;28;20177;-46
2022/12/27 06:32:38;;;;;;;118.32;42.33;;;;;;;;;;2113794;28;20048;-46
2022/12/27 06:33:39;;;;;;;121.47;45.13;;;;;;;;;;2112011;28;20052;-46
2022/12/27 06:34:40;;;;;;;118.53;44.72;;;;;;;;;;2105290;28;20097;-45
2022/12/27 06:35:41;;;;;;;122.93;45.88;;;;;;;;;;2105577;28;20211;-46
2022/12/27 06:36:48;;;;;;;126.78;46.40;;;;;;;;;;2105527;28;20416;-47
2022/12/27 06:37:49;;;;;;;117.75;42.80;;;;;;;;;;2105418;28;20051;-46
2022/12/27 06:38:51;;;;;;;121.93;45.20;;;;;;;;;;2105315;28;20071;-47
2022/12/27 06:39:52;;;;;;;141.15;50.53;;;;;;;;;;2105440;28;20045;-48
2022/12/27 06:40:59;;;;;;;133.30;48.65;;;;;;;;;;2105194;28;20144;-48
2022/12/27 06:42:00;;;;;;;146.98;50.63;;;;;;;;;;2105435;28;20052;-47
2022/12/27 06:43:01;;;;;;;141.23;48.00;;;;;;;;;;2105405;28;20133;-46
2022/12/27 06:44:02;;;;;;;134.00;48.80;;;;;;;;;;2105272;28;20040;-45
2022/12/27 06:45:05;;;;;;;143.45;49.17;;;;;;;;;;2105582;28;20043;-45
2022/12/27 06:46:07;;;;;;;125.35;44.25;;;;;;;;;;2105253;28;20066;-47
2022/12/27 06:47:14;;;;;;;127.00;46.97;;;;;;;;;;2105593;28;20051;-45
2022/12/27 06:48:15;;;;;;;130.52;48.97;;;;;;;;;;2105777;28;20093;-46
2022/12/27 06:49:16;;;;;;;132.90;48.00;;;;;;;;;;2107020;28;20056;-45
2022/12/27 06:50:17;;;;;;;130.07;46.65;;;;;;;;;;2106997;28;20053;-46
2022/12/27 06:51:19;;;;;;;141.43;49.85;;;;;;;;;;2106950;28;20191;-46
2022/12/27 06:52:22;;;;;;;127.28;47.30;;;;;;;;;;2106855;28;20052;-45
2022/12/27 06:53:23;;;;;;;147.98;50.17;;;;;;;;;;2106717;28;20044;-46
2022/12/27 06:54:24;;;;;;;149.68;49.58;;;;;;;;;;2106643;28;20511;-46
2022/12/27 06:55:25;;;;;;;153.55;52.00;;;;;;;;;;2106748;28;20044;-46
2022/12/27 06:56:26;;;;;;;144.43;50.00;;;;;;;;;;2106687;28;20558;-45
2022/12/27 06:57:28;;;;;;;142.75;48.72;;;;;;;;;;2106610;28;20480;-46
2022/12/27 06:58:29;;;;;;;136.18;47.60;;;;;;;;;;2106604;28;20412;-46
2022/12/27 06:59:30;;;;;;;133.00;44.80;;;;;;;;;;2106830;28;20219;-46
2022/12/27 07:00:31;;;;;;;159.95;51.17;;;;;;;;;;2106992;28;20044;-46
2022/12/27 07:01:32;;;;;;;149.50;50.10;;;;;;;;;;2106857;28;20519;-47
2022/12/27 07:02:33;;;;;;;135.48;48.28;;;;;;;;;;2106671;28;20047;-47
2022/12/27 07:03:34;;;;;;;146.65;49.30;;;;;;;;;;2106829;28;20114;-48
2022/12/27 07:04:35;;;;;;;177.73;56.40;;;;;;;;;;2107231;28;20040;-48
2022/12/27 07:05:37;;;;;;;135.13;47.53;;;;;;;;;;2106693;28;20044;-47
2022/12/27 07:06:38;;;;;;;164.80;56.65;;;;;;;;;;2106738;28;20075;-47
2022/12/27 07:07:39;;;;;;;150.93;52.20;;;;;;;;;;2106919;28;20051;-45
2022/12/27 07:08:40;;;;;;;155.85;55.83;;;;;;;;;;2106462;28;20052;-46
2022/12/27 07:09:42;;;;;;;172.85;55.25;;;;;;;;;;2106627;28;20054;-46
2022/12/27 07:10:42;;;;;;;154.82;54.60;;;;;;;;;;2106892;28;20051;-49
2022/12/27 07:11:44;;;;;;;163.50;55.20;;;;;;;;;;2107027;28;20511;-46
2022/12/27 07:12:45;;;;;;;172.00;56.30;;;;;;;;;;2106628;28;20044;-46
2022/12/27 07:13:47;;;;;;;161.65;53.97;;;;;;;;;;2106644;28;20083;-45
2022/12/27 07:14:48;;;;;;;186.23;57.97;;;;;;;;;;2106664;28;20481;-46
2022/12/27 07:15:49;;;;;;;166.97;56.50;;;;;;;;;;2106936;28;20071;-47
2022/12/27 07:16:50;;;;;;;190.73;56.30;;;;;;;;;;2106693;28;20047;-46
2022/12/27 07:17:52;;;;;;;174.40;58.37;;;;;;;;;;2106456;28;20040;-47
2022/12/27 07:18:53;;;;;;;192.82;58.75;;;;;;;;;;2106802;28;20354;-47
2022/12/27 07:19:54;;;;;;;210.50;60.03;;;;;;;;;;2106509;28;20040;-46
2022/12/27 07:20:55;;;;;;;132.75;40.45;;;;;;;;;;2106590;28;20047;-47
2022/12/27 07:21:56;;;;;;;190.02;55.22;;;;;;;;;;2107042;28;20547;-47
2022/12/27 07:22:58;;;;;;;175.32;54.05;;;;;;;;;;2112522;28;20040;-49
2022/12/27 07:23:59;;;;;;;;;;;;;;;;;;2115743;28;20450;-46
2022/12/27 07:25:02;;;;;;;174.15;54.95;;;;;;;;;;2114983;28;20360;-48
2022/12/27 07:26:04;;;;;;;175.07;55.08;;;;;;;;;;2114902;28;20055;-47
2022/12/27 07:27:04;;;;;;;169.63;55.33;;;;;;;;;;2115033;28;20051;-47
2022/12/27 07:28:06;;;;;;;196.07;60.65;;;;;;;;;;2115060;28;20468;-46
2022/12/27 07:29:07;;;;;;;195.25;62.13;;;;;;;;;;2114969;28;20044;-49
2022/12/27 07:30:08;;;;;;;229.93;62.40;;;;;;;;;;2115006;28;20552;-46
2022/12/27 07:31:11;;;;;;;203.40;60.35;;;;;;;;;;2114902;28;20044;-45
2022/12/27 07:32:12;;;;;;;188.57;58.85;;;;;;;;;;2115435;28;20071;-45
2022/12/27 07:33:13;;;;;;;238.07;64.25;;;;;;;;;;2114642;28;20058;-45
2022/12/27 07:34:14;;;;;;;215.50;64.72;;;;;;;;;;2108284;28;20507;-45
2022/12/27 07:35:15;;;;;;;246.10;65.25;;;;;;;;;;2106404;28;20051;-45
2022/12/27 07:36:17;;;;;;;216.27;62.28;;;;;;;;;;2106506;28;20055;-46
2022/12/27 07:37:18;;;;;;;201.13;61.92;;;;;;;;;;2106449;28;20055;-45
2022/12/27 07:38:20;;;;;;;221.27;61.50;;;;;;;;;;2106591;28;20077;-46
2022/12/27 07:39:21;;;;;;;245.00;67.80;;;;;;;;;;2106654;28;20097;-46
2022/12/27 07:40:22;;;;;;;245.57;68.13;;;;;;;;;;2106564;28;20132;-47